createdAt,value
2019-03-10T00:01:12.396Z,89.89
2019-03-10T00:03:44.196Z,89.75
2019-03-10T00:06:15.831Z,89.41
2019-03-10T00:08:47.226Z,88.84
2019-03-10T00:11:18.845Z,88.71
2019-03-10T00:13:50.567Z,88.24
2019-03-10T00:16:22.442Z,87.59
2019-03-10T00:18:54.317Z,86.10
2019-03-10T00:21:25.984Z,84.90
2019-03-10T00:23:57.342Z,82.38
2019-03-10T00:26:29.322Z,82.47
2019-03-10T00:29:01.562Z,82.06
2019-03-10T00:31:33.221Z,82.21
2019-03-10T00:34:05.176Z,82.05
2019-03-10T00:36:37.908Z,82.11
2019-03-10T00:39:38.861Z,83.24
2019-03-10T00:42:49.542Z,83.25
2019-03-10T00:46:08.846Z,83.90
2019-03-10T00:49:18.188Z,83.61
2019-03-10T00:52:04.405Z,83.75
2019-03-10T00:54:35.990Z,83.93
2019-03-10T00:57:07.664Z,83.86
2019-03-10T00:59:39.595Z,83.36
2019-03-10T01:02:11.112Z,83.00
2019-03-10T01:04:42.822Z,82.59
2019-03-10T01:07:14.502Z,82.27
2019-03-10T01:09:46.332Z,82.20
2019-03-10T01:12:17.957Z,81.92
2019-03-10T01:14:49.802Z,81.14
2019-03-10T01:17:22.475Z,81.93
2019-03-10T01:19:54.224Z,81.38
2019-03-10T01:22:26.227Z,80.65
2019-03-10T01:24:57.981Z,80.47
2019-03-10T01:27:29.756Z,81.08
2019-03-10T01:30:01.464Z,80.69
2019-03-10T01:33:12.401Z,80.50
2019-03-10T01:35:44.278Z,80.07
2019-03-10T01:38:16.293Z,80.12
2019-03-10T01:40:48.375Z,79.76
2019-03-10T01:43:19.787Z,79.35
2019-03-10T01:45:51.425Z,80.65
2019-03-10T01:48:23.052Z,80.23
2019-03-10T01:50:54.964Z,80.03
2019-03-10T01:53:26.544Z,79.89
2019-03-10T01:55:58.616Z,79.99
2019-03-10T01:58:30.351Z,80.76
2019-03-10T02:01:02.079Z,79.66
2019-03-10T02:03:33.808Z,80.69
2019-03-10T02:06:05.754Z,80.68
2019-03-10T02:08:37.281Z,80.16
2019-03-10T02:11:08.951Z,79.04
2019-03-10T02:13:40.933Z,78.62
2019-03-10T02:16:12.549Z,79.45
2019-03-10T02:18:43.956Z,79.38
2019-03-10T02:21:15.469Z,79.19
2019-03-10T02:23:47.364Z,78.70
2019-03-10T02:26:18.992Z,79.01
2019-03-10T02:28:50.723Z,79.28
2019-03-10T02:31:22.260Z,79.30
2019-03-10T02:33:53.788Z,79.38
2019-03-10T02:36:25.157Z,79.16
2019-03-10T02:38:56.725Z,79.93
2019-03-10T02:41:28.204Z,79.53
2019-03-10T02:43:59.862Z,78.66
2019-03-10T02:46:31.644Z,78.83
2019-03-10T02:49:03.252Z,79.03
2019-03-10T02:51:34.820Z,79.44
2019-03-10T02:54:07.810Z,79.19
2019-03-10T02:56:39.474Z,78.15
2019-03-10T02:59:11.334Z,78.14
2019-03-10T03:01:42.887Z,78.50
2019-03-10T03:04:14.777Z,78.58
2019-03-10T03:06:46.438Z,77.56
2019-03-10T03:09:17.971Z,77.28
2019-03-10T03:11:49.448Z,76.97
2019-03-10T03:14:21.233Z,77.05
2019-03-10T03:16:53.034Z,76.51
2019-03-10T03:19:24.619Z,76.43
2019-03-10T03:21:56.566Z,76.88
2019-03-10T03:24:30.317Z,75.13
2019-03-10T03:27:02.675Z,75.93
2019-03-10T03:29:34.505Z,75.86
2019-03-10T03:32:06.256Z,75.95
2019-03-10T03:34:37.915Z,75.76
2019-03-10T03:37:12.211Z,76.37
2019-03-10T03:39:49.864Z,75.90
2019-03-10T03:42:21.267Z,75.70
2019-03-10T03:44:53.145Z,76.15
2019-03-10T03:47:24.617Z,75.70
2019-03-10T03:49:55.974Z,75.68
2019-03-10T03:52:27.469Z,76.11
2019-03-10T03:54:59.357Z,76.47
2019-03-10T03:57:31.168Z,76.07
2019-03-10T04:00:02.772Z,75.44
2019-03-10T04:02:38.811Z,76.66
2019-03-10T04:05:10.523Z,76.41
2019-03-10T04:07:41.934Z,76.61
2019-03-10T04:10:15.491Z,76.56
2019-03-10T04:12:47.166Z,75.90
2019-03-10T04:15:18.824Z,75.29
2019-03-10T04:17:50.510Z,75.54
2019-03-10T04:20:22.035Z,75.69
2019-03-10T04:22:53.739Z,75.58
2019-03-10T04:25:25.567Z,74.88
2019-03-10T04:27:57.142Z,75.19
2019-03-10T04:30:28.877Z,75.30
2019-03-10T04:33:00.346Z,75.19
2019-03-10T04:35:32.010Z,75.46
2019-03-10T04:38:03.686Z,75.06
2019-03-10T04:40:35.170Z,74.39
2019-03-10T04:43:06.577Z,73.07
2019-03-10T04:45:38.208Z,74.81
2019-03-10T04:48:09.766Z,74.24
2019-03-10T04:50:41.295Z,74.58
2019-03-10T04:53:13.030Z,73.49
2019-03-10T04:55:46.149Z,74.11
2019-03-10T04:58:18.196Z,73.98
2019-03-10T05:00:51.536Z,72.53
2019-03-10T05:03:23.563Z,73.51
2019-03-10T05:05:55.111Z,73.87
2019-03-10T05:08:26.848Z,73.23
2019-03-10T05:10:58.173Z,73.53
2019-03-10T05:13:29.682Z,73.71
2019-03-10T05:16:01.674Z,74.08
2019-03-10T05:18:33.226Z,74.41
2019-03-10T05:21:04.984Z,74.99
2019-03-10T05:23:41.185Z,74.87
2019-03-10T05:26:13.345Z,74.89
2019-03-10T05:28:48.377Z,74.70
2019-03-10T05:31:19.741Z,74.87
2019-03-10T05:33:51.581Z,74.88
2019-03-10T05:36:22.927Z,75.38
2019-03-10T05:38:54.242Z,74.99
2019-03-10T05:41:26.053Z,74.62
2019-03-10T05:43:58.858Z,74.66
2019-03-10T05:46:31.456Z,75.49
2019-03-10T05:49:03.173Z,75.78
2019-03-10T05:51:34.724Z,75.71
2019-03-10T05:54:06.352Z,74.82
2019-03-10T05:56:37.991Z,74.61
2019-03-10T05:59:09.835Z,74.46
2019-03-10T06:01:42.123Z,74.29
2019-03-10T06:04:13.416Z,74.90
2019-03-10T06:06:45.030Z,74.18
2019-03-10T06:09:16.619Z,74.30
2019-03-10T06:11:47.980Z,73.58
2019-03-10T06:14:19.679Z,73.88
2019-03-10T06:16:51.345Z,73.88
2019-03-10T06:19:22.771Z,73.24
2019-03-10T06:21:54.317Z,73.14
2019-03-10T06:24:26.016Z,73.82
2019-03-10T06:26:57.525Z,73.10
2019-03-10T06:29:29.087Z,72.25
2019-03-10T06:32:00.587Z,72.27
2019-03-10T06:34:32.337Z,71.93
2019-03-10T06:37:04.040Z,71.11
2019-03-10T06:39:35.721Z,71.65
2019-03-10T06:42:07.320Z,70.84
2019-03-10T06:44:38.746Z,70.41
2019-03-10T06:47:10.334Z,70.61
2019-03-10T06:49:41.708Z,70.37
2019-03-10T06:52:13.423Z,69.81
2019-03-10T06:54:44.918Z,69.84
2019-03-10T06:57:16.482Z,69.21
2019-03-10T06:59:50.017Z,69.22
2019-03-10T07:02:21.293Z,69.42
2019-03-10T07:04:53.045Z,68.59
2019-03-10T07:07:24.398Z,69.02
2019-03-10T07:09:55.872Z,68.44
2019-03-10T07:12:27.713Z,67.16
2019-03-10T07:14:59.468Z,66.71
2019-03-10T07:17:31.219Z,66.77
2019-03-10T07:20:02.726Z,67.72
2019-03-10T07:22:34.356Z,67.43
2019-03-10T07:25:06.491Z,67.96
2019-03-10T07:27:56.242Z,67.43
2019-03-10T07:30:32.317Z,67.28
2019-03-10T07:33:05.338Z,67.36
2019-03-10T07:35:53.796Z,67.54
2019-03-10T07:38:29.870Z,66.23
2019-03-10T07:41:06.172Z,66.56
2019-03-10T07:43:57.265Z,66.99
2019-03-10T07:46:45.826Z,67.10
2019-03-10T07:49:24.997Z,67.19
2019-03-10T07:51:58.415Z,67.17
2019-03-10T07:54:34.210Z,65.91
2019-03-10T07:57:13.783Z,65.57
2019-03-10T08:00:01.987Z,63.58
2019-03-10T08:02:39.761Z,61.02
2019-03-10T08:05:31.466Z,61.30
2019-03-10T08:08:10.978Z,60.17
2019-03-10T08:10:55.697Z,56.80
2019-03-10T08:13:43.634Z,53.98
2019-03-10T08:16:21.015Z,54.67
2019-03-10T08:18:52.958Z,56.19
2019-03-10T08:21:25.929Z,52.91
2019-03-10T08:23:59.123Z,53.50
2019-03-10T08:26:38.706Z,51.14
2019-03-10T08:29:11.937Z,51.53
2019-03-10T08:32:01.215Z,51.63
2019-03-10T08:34:44.137Z,49.85
2019-03-10T08:37:36.654Z,49.68
2019-03-10T08:40:26.109Z,55.33
2019-03-10T08:42:59.789Z,58.77
2019-03-10T08:45:32.828Z,60.49
2019-03-10T08:48:24.232Z,58.38
2019-03-10T08:51:00.431Z,59.39
2019-03-10T08:53:46.080Z,59.73
2019-03-10T08:56:19.201Z,61.11
2019-03-10T08:58:52.223Z,61.61
2019-03-10T09:01:37.676Z,62.34
2019-03-10T09:04:16.653Z,63.55
2019-03-10T09:07:08.172Z,61.14
2019-03-10T09:09:41.704Z,61.77
2019-03-10T09:12:14.755Z,62.00
2019-03-10T09:14:56.769Z,60.19
2019-03-10T09:17:41.819Z,57.66
2019-03-10T09:20:15.469Z,53.23
2019-03-10T09:22:48.814Z,54.60
2019-03-10T09:25:37.295Z,57.37
2019-03-10T09:28:20.820Z,58.86
2019-03-10T09:30:53.883Z,59.09
2019-03-10T09:33:39.391Z,58.48
2019-03-10T09:36:12.420Z,60.07
2019-03-10T09:38:54.411Z,60.80
2019-03-10T09:41:30.821Z,59.53
2019-03-10T09:44:04.260Z,59.62
2019-03-10T09:46:43.661Z,58.74
2019-03-10T09:49:33.587Z,56.25
2019-03-10T09:52:09.505Z,56.39
2019-03-10T09:54:42.526Z,57.76
2019-03-10T09:57:21.499Z,57.20
2019-03-10T10:00:03.453Z,57.27
2019-03-10T10:02:56.224Z,56.58
2019-03-10T10:05:32.536Z,56.46
2019-03-10T10:08:22.558Z,57.23
2019-03-10T10:10:58.755Z,55.04
2019-03-10T10:13:34.282Z,55.83
2019-03-10T10:16:07.418Z,57.14
2019-03-10T10:18:43.703Z,55.23
2019-03-10T10:21:17.082Z,55.24
2019-03-10T10:23:50.102Z,53.62
2019-03-10T10:26:23.547Z,55.16
2019-03-10T10:28:56.838Z,53.96
2019-03-10T10:31:36.893Z,55.42
2019-03-10T10:34:16.435Z,55.67
2019-03-10T10:36:55.686Z,53.03
2019-03-10T10:39:45.626Z,53.08
2019-03-10T10:42:21.903Z,51.82
2019-03-10T10:45:01.008Z,51.37
2019-03-10T10:47:43.247Z,50.97
2019-03-10T10:50:19.955Z,49.47
2019-03-10T10:52:53.352Z,50.94
2019-03-10T10:55:42.644Z,52.93
2019-03-10T10:58:32.310Z,52.60
2019-03-10T11:01:06.003Z,50.78
2019-03-10T11:03:57.263Z,50.19
2019-03-10T11:06:30.289Z,51.54
2019-03-10T11:09:03.373Z,50.77
2019-03-10T11:11:42.098Z,53.40
2019-03-10T11:14:21.994Z,53.40
2019-03-10T11:16:55.100Z,53.19
2019-03-10T11:19:34.701Z,53.99
2019-03-10T11:22:11.202Z,54.97
2019-03-10T11:24:47.579Z,54.25
2019-03-10T11:27:32.743Z,53.66
2019-03-10T11:30:19.047Z,54.95
2019-03-10T11:33:10.882Z,53.85
2019-03-10T11:35:49.714Z,53.97
2019-03-10T11:38:39.212Z,49.23
2019-03-10T11:41:13.641Z,49.62
2019-03-10T11:44:01.814Z,48.81
2019-03-10T11:46:35.456Z,49.29
2019-03-10T11:49:21.028Z,50.10
2019-03-10T11:51:57.765Z,49.28
2019-03-10T11:54:47.465Z,46.64
2019-03-10T11:57:23.570Z,49.29
2019-03-10T12:00:03.092Z,49.06
2019-03-10T12:02:43.559Z,50.19
2019-03-10T12:05:26.188Z,48.56
2019-03-10T12:08:02.334Z,50.26
2019-03-10T12:10:34.154Z,50.08
2019-03-10T12:13:05.651Z,49.44
2019-03-10T12:15:37.441Z,50.52
2019-03-10T12:18:09.367Z,48.78
2019-03-10T12:20:41.084Z,48.00
2019-03-10T12:23:12.797Z,45.85
2019-03-10T12:25:44.827Z,45.67
2019-03-10T12:28:16.495Z,45.04
2019-03-10T12:30:48.194Z,46.18
2019-03-10T12:33:19.649Z,47.16
2019-03-10T12:35:51.173Z,46.74
2019-03-10T12:38:22.929Z,47.82
2019-03-10T12:40:54.407Z,48.38
2019-03-10T12:43:25.950Z,47.51
2019-03-10T12:45:57.641Z,48.36
2019-03-10T12:48:29.333Z,49.32
2019-03-10T12:51:00.804Z,48.58
2019-03-10T12:53:34.606Z,49.38
2019-03-10T12:56:06.736Z,49.21
2019-03-10T12:58:38.221Z,49.80
2019-03-10T13:01:10.175Z,49.89
2019-03-10T13:03:41.832Z,49.31
2019-03-10T13:06:13.356Z,50.78
2019-03-10T13:08:45.059Z,50.11
2019-03-10T13:11:16.341Z,50.03
2019-03-10T13:13:47.895Z,50.23
2019-03-10T13:16:21.264Z,50.08
2019-03-10T13:18:53.048Z,50.06
2019-03-10T13:21:26.147Z,51.12
2019-03-10T13:23:58.040Z,51.73
2019-03-10T13:26:29.709Z,51.77
2019-03-10T13:29:01.252Z,51.92
2019-03-10T13:31:33.325Z,52.04
2019-03-10T13:34:05.005Z,51.62
2019-03-10T13:36:36.698Z,52.27
2019-03-10T13:39:08.843Z,51.64
2019-03-10T13:41:41.693Z,53.34
2019-03-10T13:44:13.585Z,53.21
2019-03-10T13:46:45.119Z,52.75
2019-03-10T13:49:17.827Z,52.52
2019-03-10T13:51:49.559Z,52.58
2019-03-10T13:54:21.153Z,52.97
2019-03-10T13:56:52.520Z,52.96
2019-03-10T13:59:24.002Z,52.96
2019-03-10T14:01:55.697Z,52.22
2019-03-10T14:04:27.483Z,51.34
2019-03-10T14:06:59.142Z,51.54
2019-03-10T14:09:30.839Z,51.24
2019-03-10T14:12:03.451Z,52.44
2019-03-10T14:14:34.837Z,52.60
2019-03-10T14:17:06.620Z,52.33
2019-03-10T14:19:38.071Z,51.02
2019-03-10T14:22:09.955Z,48.78
2019-03-10T14:24:41.692Z,47.59
2019-03-10T14:27:13.082Z,48.81
2019-03-10T14:29:45.285Z,48.04
2019-03-10T14:32:17.027Z,48.86
2019-03-10T14:34:48.747Z,47.46
2019-03-10T14:37:20.709Z,46.80
2019-03-10T14:39:52.484Z,47.75
2019-03-10T14:42:24.029Z,49.00
2019-03-10T14:44:55.882Z,48.56
2019-03-10T14:47:27.683Z,47.77
2019-03-10T14:49:59.582Z,47.87
2019-03-10T14:52:31.995Z,48.00
2019-03-10T14:55:03.929Z,49.18
2019-03-10T14:57:35.744Z,49.09
2019-03-10T15:00:09.717Z,50.23
2019-03-10T15:02:41.713Z,51.38
2019-03-10T15:05:13.234Z,51.19
2019-03-10T15:07:44.785Z,51.40
2019-03-10T15:10:17.161Z,51.89
2019-03-10T15:12:48.713Z,51.98
2019-03-10T15:15:22.683Z,51.73
2019-03-10T15:17:53.871Z,52.91
2019-03-10T15:20:26.523Z,53.29
2019-03-10T15:22:58.656Z,53.22
2019-03-10T15:25:30.190Z,53.92
2019-03-10T15:28:02.824Z,54.73
2019-03-10T15:30:34.634Z,54.63
2019-03-10T15:33:06.077Z,54.49
2019-03-10T15:35:37.890Z,54.04
2019-03-10T15:38:11.322Z,55.24
2019-03-10T15:40:43.027Z,54.16
2019-03-10T15:43:14.496Z,54.58
2019-03-10T15:45:45.915Z,54.68
2019-03-10T15:48:17.354Z,55.05
2019-03-10T15:50:48.742Z,54.53
2019-03-10T15:53:20.467Z,54.62
2019-03-10T15:55:51.889Z,54.54
2019-03-10T15:58:23.666Z,54.93
2019-03-10T16:00:55.544Z,54.93
2019-03-10T16:03:27.147Z,53.77
2019-03-10T16:05:58.935Z,54.71
2019-03-10T16:08:30.704Z,54.23
2019-03-10T16:11:02.503Z,54.28
2019-03-10T16:13:34.272Z,54.44
2019-03-10T16:16:07.026Z,54.96
2019-03-10T16:18:38.801Z,54.68
2019-03-10T16:21:10.979Z,54.93
2019-03-10T16:23:42.693Z,54.80
2019-03-10T16:26:15.085Z,55.36
2019-03-10T16:28:46.711Z,55.84
2019-03-10T16:31:18.383Z,55.16
2019-03-10T16:33:50.251Z,55.00
2019-03-10T16:36:21.910Z,55.70
2019-03-10T16:38:53.641Z,53.85
2019-03-10T16:41:25.376Z,53.57
2019-03-10T16:43:57.041Z,54.12
2019-03-10T16:46:29.507Z,53.65
2019-03-10T16:49:01.338Z,53.82
2019-03-10T16:51:32.878Z,54.24
2019-03-10T16:54:05.101Z,53.93
2019-03-10T16:56:36.568Z,53.84
2019-03-10T16:59:08.238Z,53.84
2019-03-10T17:01:39.969Z,54.05
2019-03-10T17:04:11.530Z,54.71
2019-03-10T17:06:43.292Z,55.00
2019-03-10T17:09:21.033Z,56.26
2019-03-10T17:11:53.102Z,56.75
2019-03-10T17:14:24.557Z,57.19
2019-03-10T17:16:56.357Z,57.02
2019-03-10T17:19:28.034Z,57.41
2019-03-10T17:21:59.813Z,57.94
2019-03-10T17:24:31.180Z,58.10
2019-03-10T17:27:04.825Z,58.59
2019-03-10T17:29:36.265Z,59.55
2019-03-10T17:32:08.291Z,59.18
2019-03-10T17:34:41.077Z,59.35
2019-03-10T17:37:12.639Z,59.78
2019-03-10T17:39:44.521Z,60.49
2019-03-10T17:42:16.340Z,60.83
2019-03-10T17:44:47.992Z,60.56
2019-03-10T17:47:19.729Z,61.10
2019-03-10T17:49:51.212Z,61.45
2019-03-10T17:52:22.719Z,62.68
2019-03-10T17:54:54.681Z,61.92
2019-03-10T17:57:28.016Z,62.42
2019-03-10T17:59:59.849Z,62.54
2019-03-10T18:02:31.607Z,63.49
2019-03-10T18:05:03.189Z,63.49
2019-03-10T18:07:34.824Z,63.43
2019-03-10T18:10:07.157Z,63.90
2019-03-10T18:12:39.189Z,63.92
2019-03-10T18:15:11.500Z,64.20
2019-03-10T18:17:43.377Z,64.27
2019-03-10T18:20:15.379Z,64.77
2019-03-10T18:22:47.112Z,65.09
2019-03-10T18:25:20.116Z,64.84
2019-03-10T18:27:51.883Z,65.09
2019-03-10T18:30:23.721Z,66.11
2019-03-10T18:32:55.492Z,65.91
2019-03-10T18:35:26.981Z,65.61
2019-03-10T18:37:58.596Z,66.19
2019-03-10T18:40:30.576Z,66.51
2019-03-10T18:43:02.135Z,65.75
2019-03-10T18:45:33.802Z,66.02
2019-03-10T18:48:05.996Z,66.84
2019-03-10T18:50:38.820Z,66.77
2019-03-10T18:53:11.595Z,66.68
2019-03-10T18:55:43.583Z,67.07
2019-03-10T18:58:16.223Z,67.60
2019-03-10T19:00:48.223Z,68.19
2019-03-10T19:03:21.359Z,67.92
2019-03-10T19:05:52.970Z,67.67
2019-03-10T19:08:24.679Z,68.58
2019-03-10T19:10:56.329Z,68.36
2019-03-10T19:13:27.982Z,68.69
2019-03-10T19:16:00.403Z,69.20
2019-03-10T19:18:31.975Z,68.88
2019-03-10T19:21:03.680Z,69.05
2019-03-10T19:23:35.257Z,69.64
2019-03-10T19:26:07.282Z,69.78
2019-03-10T19:28:39.425Z,69.95
2019-03-10T19:31:11.148Z,69.99
2019-03-10T19:33:42.807Z,70.58
2019-03-10T19:36:14.457Z,70.90
2019-03-10T19:38:45.931Z,71.32
2019-03-10T19:41:17.716Z,71.81
2019-03-10T19:43:49.453Z,73.04
2019-03-10T19:46:21.009Z,72.91
2019-03-10T19:48:52.624Z,73.30
2019-03-10T19:51:24.299Z,72.33
2019-03-10T19:53:55.945Z,72.64
2019-03-10T19:56:27.905Z,71.68
2019-03-10T19:58:59.374Z,72.62
2019-03-10T20:01:30.892Z,72.33
2019-03-10T20:04:02.484Z,73.00
2019-03-10T20:06:34.268Z,72.73
2019-03-10T20:09:07.817Z,72.73
2019-03-10T20:11:39.649Z,73.06
2019-03-10T20:14:11.135Z,73.35
2019-03-10T20:16:42.770Z,73.39
2019-03-10T20:19:14.354Z,73.76
2019-03-10T20:21:46.214Z,73.70
2019-03-10T20:24:17.938Z,74.24
2019-03-10T20:26:49.852Z,73.29
2019-03-10T20:29:21.403Z,72.84
2019-03-10T20:31:53.015Z,73.28
2019-03-10T20:34:24.785Z,73.44
2019-03-10T20:36:56.303Z,73.81
2019-03-10T20:39:27.968Z,73.91
2019-03-10T20:42:04.993Z,74.09
2019-03-10T20:44:33.306Z,74.42
2019-03-10T20:47:05.296Z,74.79
2019-03-10T20:49:36.895Z,74.43
2019-03-10T20:52:08.541Z,74.96
2019-03-10T20:54:39.988Z,75.08
2019-03-10T20:57:11.529Z,75.76
2019-03-10T20:59:43.128Z,76.06
2019-03-10T21:02:15.025Z,76.41
2019-03-10T21:04:46.346Z,75.81
2019-03-10T21:07:18.043Z,75.82
2019-03-10T21:09:49.787Z,75.96
2019-03-10T21:12:21.810Z,75.56
2019-03-10T21:14:54.020Z,76.35
2019-03-10T21:17:25.770Z,76.07
2019-03-10T21:19:57.350Z,76.05
2019-03-10T21:22:29.384Z,76.16
2019-03-10T21:25:01.106Z,76.34
2019-03-10T21:27:32.983Z,77.21
2019-03-10T21:30:05.387Z,77.91
2019-03-10T21:32:37.096Z,77.83
2019-03-10T21:35:17.104Z,77.74
2019-03-10T21:37:42.763Z,77.74
2019-03-10T21:40:15.967Z,78.60
2019-03-10T21:42:47.639Z,77.72
2019-03-10T21:45:19.679Z,77.78
2019-03-10T21:47:52.428Z,77.36
2019-03-10T21:50:24.227Z,77.16
2019-03-10T21:52:56.159Z,77.03
2019-03-10T21:55:28.052Z,77.24
2019-03-10T21:57:59.644Z,77.50
2019-03-10T22:00:31.370Z,77.33
2019-03-10T22:03:03.285Z,77.35
2019-03-10T22:05:35.088Z,77.76
2019-03-10T22:08:06.728Z,77.54
2019-03-10T22:10:39.854Z,77.97
2019-03-10T22:13:11.976Z,78.08
2019-03-10T22:15:42.457Z,78.19
2019-03-10T22:18:13.699Z,77.97
2019-03-10T22:20:44.092Z,78.08
2019-03-10T22:23:14.375Z,78.24
2019-03-10T22:25:44.868Z,78.77
2019-03-10T22:28:15.098Z,79.31
2019-03-10T22:30:45.446Z,79.93
2019-03-10T22:33:15.924Z,79.94
2019-03-10T22:35:46.155Z,80.06
2019-03-10T22:38:16.375Z,80.21
2019-03-10T22:40:46.802Z,80.38
2019-03-10T22:43:16.948Z,80.57
2019-03-10T22:45:47.401Z,80.13
2019-03-10T22:48:17.597Z,80.29
2019-03-10T22:50:47.897Z,80.31
2019-03-10T22:53:19.196Z,80.32
2019-03-10T22:55:49.825Z,80.75
2019-03-10T22:58:20.371Z,80.97
2019-03-10T23:00:52.429Z,81.46
2019-03-10T23:03:22.965Z,81.13
2019-03-10T23:05:53.183Z,81.12
2019-03-10T23:08:23.462Z,81.17
2019-03-10T23:10:56.074Z,81.10
2019-03-10T23:13:26.424Z,81.50
2019-03-10T23:15:56.619Z,81.07
2019-03-10T23:18:27.090Z,81.16
2019-03-10T23:20:57.342Z,81.28
2019-03-10T23:23:29.004Z,81.21
2019-03-10T23:25:59.509Z,81.48
2019-03-10T23:28:30.028Z,81.71
2019-03-10T23:31:00.149Z,81.94
2019-03-10T23:33:31.611Z,81.89
2019-03-10T23:36:01.661Z,81.65
2019-03-10T23:38:32.642Z,81.73
2019-03-10T23:41:02.963Z,81.77
2019-03-10T23:43:33.493Z,81.57
2019-03-10T23:46:03.984Z,81.56
2019-03-10T23:48:34.216Z,81.76
2019-03-10T23:51:04.616Z,81.72
2019-03-10T23:53:35.146Z,81.83
2019-03-10T23:56:05.721Z,81.91
2019-03-10T23:58:35.900Z,82.08
